Observations for MIDDLE WALLOP, United Kingdom (EGVP)

EGVP 260350Z AUTO 35002KT 6000 // NCD 14/14 Q1018   
EGVP 260250Z AUTO 08003KT 9000 // NCD 15/14 Q1018   
EGVP 260150Z AUTO 31002KT 9999 // NCD 14/14 Q1018   
EGVP 260050Z AUTO 30003KT 9999 // NCD 14/13 Q1018   
EGVP 252350Z AUTO 14002KT 9999 // NCD 16/15 Q1019   
EGVP 252250Z AUTO 26001KT 9999 // NCD 17/15 Q1019   
EGVP 252150Z AUTO 14002KT 9999 // NCD 19/15 Q1019   
EGVP 252050Z AUTO 28002KT 9999 // NCD 19/15 Q1019   
EGVP 251950Z AUTO 18003KT 9999 // NCD 21/15 Q1019   
EGVP 251850Z AUTO 16006KT 9999 // NCD 23/16 Q1018   
EGVP 251750Z AUTO 17009KT 9999 // NCD 25/16 Q1018   
EGVP 251650Z AUTO 16010KT 9999 // NCD 27/16 Q1017   
EGVP 251550Z AUTO 16010KT 9999 // NCD 29/15 Q1017   
EGVP 251450Z AUTO 17011KT 9999 // NCD 30/12 Q1017   
EGVP 251350Z AUTO 14011KT 9999 // NCD 30/14 Q1017   
EGVP 251250Z AUTO 18008KT 9999 // NCD 30/15 Q1017   
EGVP 251150Z AUTO 16007KT 9999 // NCD 28/15 Q1017   
EGVP 251050Z AUTO 16007KT 9999 // NCD 28/15 Q1017   
EGVP 250950Z AUTO 15005KT 9999 // FEW150/// SCT180/// 25/16 Q1017   
EGVP 250850Z AUTO 15007KT 9999 // FEW100/// 24/15 Q1017 
EGVP 250750Z AUTO 20003KT 9999 // BKN100/// BKN160/// 22/15 Q1017   
EGVP 250650Z AUTO 09004KT 9999 // SCT100/// BKN150/// 18/13 Q1016   
EGVP 250550Z AUTO 01003KT 9999 // SCT140/// 17/13 Q1016 
EGVP 250450Z AUTO 03002KT 9999 // FEW100/// 16/12 Q1016